Time;durP1;ratioP1;P1;durP2;ratioP2;P2;SDS_P1;SDS_P2;PMS_P1;PMS_P2;Temp;Humidity;BMP_temperature;BMP_pressure;BME280_temperature;BME280_humidity;BME280_pressure;Samples;Min_cycle;Max_cycle;Signal;HPM_P1;HPM_P2
2021/03/23 00:01:46;;;;;;;10.15;4.35;;;;;;;-0.71;57.71;98870.66;1709961;83;21250;-66
2021/03/23 00:04:14;;;;;;;6.92;3.75;;;;;;;-0.75;58.08;98869.09;1709806;83;21196;-66
2021/03/23 00:06:42;;;;;;;8.40;4.15;;;;;;;-0.78;58.05;98875.69;1709852;82;21195;-66
2021/03/23 00:09:11;;;;;;;7.62;3.67;;;;;;;-0.79;58.34;98876.14;1709772;83;21587;-66
2021/03/23 00:11:41;;;;;;;6.00;3.50;;;;;;;-0.83;58.55;98875.41;1710076;84;21180;-67
2021/03/23 00:14:13;;;;;;;6.30;3.42;;;;;;;-0.88;58.64;98881.23;1710078;84;21715;-67
2021/03/23 00:16:43;;;;;;;12.68;6.08;;;;;;;-0.97;58.76;98888.06;1709984;83;21108;-67
2021/03/23 00:19:13;;;;;;;14.75;6.90;;;;;;;-1.03;58.81;98883.09;1710196;84;21344;-66
2021/03/23 00:21:41;;;;;;;10.13;5.40;;;;;;;-1.06;59.04;98881.89;1709799;84;21171;-66
2021/03/23 00:24:09;;;;;;;8.15;3.80;;;;;;;-1.07;59.07;98873.73;1710092;84;21691;-66
2021/03/23 00:26:36;;;;;;;10.13;4.10;;;;;;;-1.14;59.15;98873.56;1709880;83;21164;-66
2021/03/23 00:29:04;;;;;;;7.50;3.50;;;;;;;-1.18;59.22;98868.92;1709933;84;21199;-66
2021/03/23 00:31:33;;;;;;;5.80;3.10;;;;;;;-1.22;59.16;98869.95;1710083;84;21180;-66
2021/03/23 00:34:04;;;;;;;9.53;3.30;;;;;;;-1.24;59.29;98882.98;1709745;84;21631;-66
2021/03/23 00:36:38;;;;;;;5.65;2.77;;;;;;;-1.24;59.29;98877.80;1709815;84;21349;-66
2021/03/23 00:39:07;;;;;;;6.00;2.92;;;;;;;-1.28;59.39;98878.78;1709695;82;21865;-66
2021/03/23 00:41:37;;;;;;;5.78;3.20;;;;;;;-1.30;59.36;98879.73;1710106;84;21159;-67
2021/03/23 00:44:06;;;;;;;6.00;3.37;;;;;;;-1.39;59.53;98876.58;1710090;84;21754;-66
2021/03/23 00:46:33;;;;;;;6.80;3.10;;;;;;;-1.39;59.66;98874.45;1709931;84;21305;-66
2021/03/23 00:49:01;;;;;;;7.12;3.60;;;;;;;-1.45;59.97;98878.55;1709942;84;21183;-66
2021/03/23 00:51:29;;;;;;;6.28;3.67;;;;;;;-1.46;60.07;98873.80;1710166;83;21303;-67
2021/03/23 00:53:57;;;;;;;7.33;3.55;;;;;;;-1.54;60.10;98871.48;1710268;83;21175;-67
2021/03/23 00:56:24;;;;;;;6.28;3.45;;;;;;;-1.49;60.16;98875.22;1709832;83;21294;-67
2021/03/23 00:58:52;;;;;;;7.83;3.70;;;;;;;-1.55;60.26;98878.02;1709777;84;21188;-66
2021/03/23 01:01:19;;;;;;;8.30;4.33;;;;;;;-1.51;60.22;98876.58;1715878;83;21154;-66
2021/03/23 01:03:47;;;;;;;7.65;3.55;;;;;;;-1.58;60.36;98869.90;1723484;83;21186;-66
2021/03/23 01:06:15;;;;;;;8.75;4.17;;;;;;;-1.56;60.28;98871.13;1723498;82;21159;-66
2021/03/23 01:08:43;;;;;;;8.13;3.83;;;;;;;-1.63;60.50;98873.56;1723297;83;21142;-66
2021/03/23 01:11:10;;;;;;;5.37;3.27;;;;;;;-1.60;60.50;98876.87;1723463;83;21359;-66
2021/03/23 01:13:37;;;;;;;7.60;4.08;;;;;;;-1.66;60.66;98870.16;1723288;83;21207;-66
2021/03/23 01:16:07;;;;;;;7.45;3.55;;;;;;;-1.63;60.71;98875.69;1723347;83;21607;-66
2021/03/23 01:18:36;;;;;;;7.40;3.75;;;;;;;-1.65;60.79;98865.81;1723284;83;21119;-66
2021/03/23 01:21:04;;;;;;;7.10;4.10;;;;;;;-1.62;60.81;98868.31;1723225;83;21368;-65
2021/03/23 01:23:31;;;;;;;9.78;4.22;;;;;;;-1.65;60.89;98874.45;1723285;83;21329;-68
2021/03/23 01:25:59;;;;;;;8.50;4.22;;;;;;;-1.64;60.94;98876.59;1723521;83;21147;-68
2021/03/23 01:28:26;;;;;;;7.70;4.12;;;;;;;-1.67;61.21;98878.00;1723287;83;21170;-68
2021/03/23 01:30:54;;;;;;;8.78;4.67;;;;;;;-1.68;61.22;98876.30;1723507;83;21651;-68
2021/03/23 01:33:21;;;;;;;9.28;4.30;;;;;;;-1.76;61.39;98870.55;1723581;83;21194;-68
2021/03/23 01:35:51;;;;;;;10.15;4.08;;;;;;;-1.79;61.57;98881.87;1723344;83;21143;-68
2021/03/23 01:38:18;;;;;;;8.90;4.40;;;;;;;-1.85;61.79;98875.13;1723447;82;21154;-68
2021/03/23 01:40:46;;;;;;;9.63;4.12;;;;;;;-1.85;61.97;98875.59;1723505;82;21773;-68
2021/03/23 01:43:28;;;;;;;9.50;3.98;;;;;;;-1.89;62.03;98873.97;1723293;83;21206;-68
2021/03/23 01:45:57;;;;;;;9.83;4.40;;;;;;;-1.95;62.18;98881.52;1723252;83;21159;-66
2021/03/23 01:48:31;;;;;;;8.78;4.53;;;;;;;-1.98;62.41;98886.35;1723232;83;21289;-66
2021/03/23 01:51:02;;;;;;;8.50;4.40;;;;;;;-2.04;62.46;98880.07;1723210;83;21170;-66
2021/03/23 01:53:39;;;;;;;9.33;4.45;;;;;;;-2.04;62.55;98869.70;1723444;83;21158;-67
2021/03/23 01:56:07;;;;;;;8.78;4.08;;;;;;;-2.06;62.59;98875.84;1723358;83;21615;-66
2021/03/23 01:58:39;;;;;;;9.35;4.65;;;;;;;-2.08;62.59;98870.71;1723514;83;21615;-67
2021/03/23 02:01:11;;;;;;;9.50;4.05;;;;;;;-2.10;62.69;98866.48;1720061;83;21186;-66
2021/03/23 02:03:39;;;;;;;7.77;4.13;;;;;;;-2.14;62.76;98865.73;1709977;84;21136;-66
2021/03/23 02:06:36;;;;;;;10.15;5.03;;;;;;;-2.17;62.82;98869.27;1709574;82;21346;-66
2021/03/23 02:09:07;;;;;;;12.58;6.05;;;;;;;-2.19;62.91;98869.75;1685147;85;21244;-66
2021/03/23 02:11:38;;;;;;;10.25;5.15;;;;;;;-2.18;62.93;98876.62;1703358;84;21168;-66
2021/03/23 02:14:06;;;;;;;9.00;4.60;;;;;;;-2.23;63.08;98884.16;1708806;84;21179;-66
2021/03/23 02:16:34;;;;;;;9.23;4.85;;;;;;;-2.24;63.00;98879.41;1710083;84;21191;-66
2021/03/23 02:19:02;;;;;;;8.30;3.95;;;;;;;-2.28;63.07;98875.23;1709930;83;21183;-66
2021/03/23 02:21:30;;;;;;;7.58;4.08;;;;;;;-2.21;63.04;98873.28;1710091;84;21345;-66
2021/03/23 02:23:58;;;;;;;8.50;4.47;;;;;;;-2.25;63.11;98876.45;1709802;84;21207;-66
2021/03/23 02:26:32;;;;;;;9.35;4.33;;;;;;;-2.18;63.02;98877.09;1709991;84;21155;-66
2021/03/23 02:29:07;;;;;;;6.08;3.85;;;;;;;-2.25;63.06;98875.16;1710055;83;21195;-66
2021/03/23 02:31:42;;;;;;;7.22;3.77;;;;;;;-2.23;63.01;98864.28;1709843;84;21165;-65
2021/03/23 02:34:13;;;;;;;6.05;3.42;;;;;;;-2.27;63.08;98873.05;1709356;84;21663;-66
2021/03/23 02:36:42;;;;;;;8.95;4.17;;;;;;;-2.31;63.20;98872.30;1709973;84;21104;-66
2021/03/23 02:39:13;;;;;;;7.75;3.60;;;;;;;-2.34;63.30;98878.02;1709521;82;21353;-66
2021/03/23 02:41:40;;;;;;;6.67;3.58;;;;;;;-2.40;63.43;98887.30;1709670;84;21294;-66
2021/03/23 02:44:09;;;;;;;7.90;3.45;;;;;;;-2.42;63.57;98876.96;1709615;84;21199;-66
2021/03/23 02:46:38;;;;;;;5.78;3.50;;;;;;;-2.44;63.64;98876.19;1709943;84;21183;-66
2021/03/23 02:49:07;;;;;;;8.18;4.45;;;;;;;-2.43;63.73;98874.42;1709636;84;21159;-65
2021/03/23 02:51:35;;;;;;;8.65;4.22;;;;;;;-2.48;63.85;98876.72;1709655;84;21164;-65
2021/03/23 02:54:02;;;;;;;7.33;3.33;;;;;;;-2.46;64.01;98884.43;1709687;84;21326;-66
2021/03/23 02:56:30;;;;;;;7.05;3.50;;;;;;;-2.48;64.16;98872.84;1709633;84;21352;-66
2021/03/23 02:58:57;;;;;;;8.55;3.83;;;;;;;-2.47;64.09;98879.72;1709586;84;21191;-66
2021/03/23 03:01:25;;;;;;;6.35;3.33;;;;;;;-2.50;64.26;98876.37;1709740;83;21192;-65
2021/03/23 03:03:53;;;;;;;6.33;3.25;;;;;;;-2.54;64.41;98882.08;1709776;84;21645;-66
2021/03/23 03:06:20;;;;;;;6.42;3.58;;;;;;;-2.50;64.34;98884.97;1709771;82;21302;-65
2021/03/23 03:08:48;;;;;;;6.45;3.98;;;;;;;-2.54;64.49;98885.12;1709688;84;21215;-65
2021/03/23 03:11:15;;;;;;;7.55;3.25;;;;;;;-2.49;64.33;98883.25;1709761;84;21329;-66
2021/03/23 03:13:43;;;;;;;6.70;3.85;;;;;;;-2.54;64.42;98882.08;1709663;84;21183;-67
2021/03/23 03:16:10;;;;;;;7.55;3.75;;;;;;;-2.52;64.31;98879.01;1709794;84;21144;-67
2021/03/23 03:18:38;;;;;;;8.20;3.95;;;;;;;-2.56;64.43;98883.86;1709710;84;21159;-66
2021/03/23 03:21:06;;;;;;;6.87;4.15;;;;;;;-2.57;64.46;98875.72;1709913;83;21656;-67
2021/03/23 03:23:33;;;;;;;6.33;3.50;;;;;;;-2.59;64.51;98874.07;1710024;84;21195;-67
2021/03/23 03:26:05;;;;;;;7.62;3.50;;;;;;;-2.62;64.56;98876.30;1709860;84;21596;-67
2021/03/23 03:28:34;;;;;;;7.80;3.90;;;;;;;-2.63;64.72;98884.96;1710095;84;21306;-66
2021/03/23 03:31:01;;;;;;;8.93;3.98;;;;;;;-2.69;64.86;98883.84;1709972;84;21183;-66
2021/03/23 03:33:29;;;;;;;9.50;3.85;;;;;;;-2.66;64.85;98881.15;1710077;84;21695;-66
2021/03/23 03:35:58;;;;;;;7.80;3.50;;;;;;;-2.68;64.97;98875.19;1708843;84;21183;-66
2021/03/23 03:38:26;;;;;;;7.05;3.55;;;;;;;-2.65;64.93;98880.27;1710036;82;21211;-66
2021/03/23 03:40:57;;;;;;;8.03;3.83;;;;;;;-2.66;64.96;98882.02;1710028;83;21219;-66
2021/03/23 03:43:28;;;;;;;8.10;4.30;;;;;;;-2.67;64.96;98884.66;1710246;84;21147;-66
2021/03/23 03:45:56;;;;;;;8.00;4.35;;;;;;;-2.67;65.02;98893.72;1710112;84;21183;-66
2021/03/23 03:48:24;;;;;;;8.35;4.35;;;;;;;-2.71;65.07;98890.80;1709903;84;21179;-66
2021/03/23 03:50:52;;;;;;;10.28;4.85;;;;;;;-2.68;64.99;98889.43;1710080;84;21587;-66
2021/03/23 03:53:19;;;;;;;8.50;4.22;;;;;;;-2.73;65.04;98895.19;1709854;84;21188;-66
2021/03/23 03:55:46;;;;;;;11.83;4.65;;;;;;;-2.70;65.02;98888.62;1710110;84;21606;-66
2021/03/23 03:58:15;;;;;;;8.43;4.40;;;;;;;-2.76;65.19;98895.27;1710102;84;21195;-67
2021/03/23 04:00:42;;;;;;;10.32;4.60;;;;;;;-2.72;65.14;98904.20;1710085;84;21222;-66
2021/03/23 04:03:22;;;;;;;8.98;4.47;;;;;;;-2.76;65.27;98910.36;1721157;83;21170;-66
2021/03/23 04:05:51;;;;;;;8.33;4.20;;;;;;;-2.74;65.25;98909.02;1723623;82;21599;-66
2021/03/23 04:08:26;;;;;;;7.60;3.80;;;;;;;-2.83;65.38;98916.59;1723584;83;21578;-66
2021/03/23 04:10:59;;;;;;;6.33;3.65;;;;;;;-2.79;65.34;98916.91;1723293;83;21158;-66
2021/03/23 04:13:26;;;;;;;11.40;4.53;;;;;;;-2.80;65.53;98908.73;1723343;83;21191;-66
2021/03/23 04:15:53;;;;;;;8.50;3.98;;;;;;;-2.76;65.48;98911.66;1723316;83;21297;-66
2021/03/23 04:18:25;;;;;;;8.45;3.90;;;;;;;-2.75;65.54;98917.67;1723821;83;21154;-66
2021/03/23 04:20:55;;;;;;;7.92;3.62;;;;;;;-2.76;65.57;98915.54;1723518;83;21312;-66
2021/03/23 04:23:34;;;;;;;10.45;4.28;;;;;;;-2.75;65.65;98922.84;1723572;83;21737;-66
2021/03/23 04:26:03;;;;;;;7.35;3.83;;;;;;;-2.76;65.73;98912.09;1723290;83;21179;-66
2021/03/23 04:28:31;;;;;;;7.05;3.80;;;;;;;-2.71;65.70;98914.95;1723311;83;21187;-66
2021/03/23 04:30:59;;;;;;;8.20;4.50;;;;;;;-2.72;65.83;98908.54;1723379;83;21296;-66
2021/03/23 04:33:28;;;;;;;9.68;5.08;;;;;;;-2.68;65.89;98916.61;1723491;83;21639;-66
2021/03/23 04:36:06;;;;;;;9.25;4.08;;;;;;;-2.64;65.95;98918.20;1723319;83;21312;-66
2021/03/23 04:38:36;;;;;;;6.65;4.00;;;;;;;-2.58;65.93;98918.45;1723312;82;21921;-66
2021/03/23 04:41:09;;;;;;;7.78;3.92;;;;;;;-2.52;65.91;98917.84;1723536;83;21171;-66
2021/03/23 04:43:44;;;;;;;9.55;4.30;;;;;;;-2.52;65.96;98916.98;1723667;83;21182;-66
2021/03/23 04:46:13;;;;;;;8.63;3.80;;;;;;;-2.45;66.07;98911.19;1723481;83;21164;-66
2021/03/23 04:48:41;;;;;;;11.63;4.47;;;;;;;-2.45;66.07;98915.08;1723579;83;21924;-66
2021/03/23 04:51:11;;;;;;;9.55;4.17;;;;;;;-2.27;65.81;98917.08;1723284;83;21176;-66
2021/03/23 04:53:39;;;;;;;8.08;4.30;;;;;;;-2.18;65.47;98906.42;1723370;83;21203;-66
2021/03/23 04:56:08;;;;;;;8.13;4.67;;;;;;;-1.93;64.90;98909.97;1723322;83;21171;-66
2021/03/23 04:58:36;;;;;;;9.65;4.78;;;;;;;-1.52;63.86;98920.26;1723282;83;21155;-66
2021/03/23 05:01:03;;;;;;;10.00;4.53;;;;;;;-0.88;62.72;98917.57;1723392;83;21139;-66
2021/03/23 05:03:33;;;;;;;9.00;4.42;;;;;;;-0.36;61.17;98913.89;1711542;83;21616;-66
2021/03/23 05:06:06;;;;;;;9.60;4.58;;;;;;;0.09;58.94;98918.18;1709903;82;21588;-66
2021/03/23 05:08:36;;;;;;;12.60;5.05;;;;;;;0.34;58.95;98914.55;1710292;84;21330;-66
2021/03/23 05:11:05;;;;;;;10.32;5.03;;;;;;;0.68;57.04;98917.04;1710066;83;21620;-66
2021/03/23 05:13:32;;;;;;;10.18;5.37;;;;;;;0.84;56.84;98909.39;1709824;84;21630;-66
2021/03/23 05:16:00;;;;;;;9.15;4.65;;;;;;;1.08;56.33;98913.97;1710085;84;21187;-66
2021/03/23 05:18:27;;;;;;;11.45;5.17;;;;;;;1.24;56.43;98910.67;1709966;83;21172;-66
2021/03/23 05:20:55;;;;;;;13.25;5.90;;;;;;;1.53;55.50;98910.63;1710067;84;21611;-66
2021/03/23 05:23:23;;;;;;;11.48;5.60;;;;;;;1.74;54.83;98910.09;1710129;84;21147;-66
2021/03/23 05:25:50;;;;;;;10.63;5.00;;;;;;;1.94;53.87;98914.36;1709911;84;21326;-66
2021/03/23 05:28:18;;;;;;;9.55;5.25;;;;;;;2.11;54.31;98920.05;1709729;84;21338;-66
2021/03/23 05:30:46;;;;;;;10.93;5.42;;;;;;;2.40;53.85;98913.83;1709898;84;21225;-66
2021/03/23 05:33:13;;;;;;;10.65;5.55;;;;;;;2.57;52.43;98922.58;1709818;84;21174;-66
2021/03/23 05:35:41;;;;;;;9.88;5.28;;;;;;;2.53;51.73;98910.17;1709745;84;21175;-66
2021/03/23 05:38:09;;;;;;;9.75;5.67;;;;;;;2.56;51.81;98918.31;1709597;82;21308;-66
2021/03/23 05:40:41;;;;;;;8.98;5.33;;;;;;;2.61;52.14;98914.53;1709908;84;21184;-66
2021/03/23 05:43:37;;;;;;;9.25;4.55;;;;;;;2.82;52.20;98918.73;1709856;84;21580;-66
2021/03/23 05:46:19;;;;;;;10.03;4.67;;;;;;;2.97;51.95;98916.63;1709666;83;21151;-66
2021/03/23 05:49:09;;;;;;;9.18;4.83;;;;;;;3.10;50.84;98921.57;1710052;83;21159;-66
2021/03/23 05:51:47;;;;;;;8.83;4.75;;;;;;;3.10;50.28;98912.42;1709733;83;21151;-65
2021/03/23 05:54:28;;;;;;;9.60;5.20;;;;;;;2.98;50.40;98920.94;1709778;84;21277;-65
2021/03/23 05:56:58;;;;;;;9.38;4.87;;;;;;;3.04;51.01;98918.45;1709621;84;21132;-65
2021/03/23 05:59:48;;;;;;;9.40;5.15;;;;;;;3.07;49.68;98916.52;1709923;84;21592;-65
2021/03/23 06:02:21;;;;;;;9.50;4.15;;;;;;;2.97;49.61;98919.23;1711640;83;21635;-66
2021/03/23 06:04:57;;;;;;;8.73;4.45;;;;;;;2.87;49.82;98918.03;1717585;82;21148;-65
2021/03/23 06:07:36;;;;;;;8.93;4.47;;;;;;;2.84;50.54;98918.17;1780270;79;23089;-67
2021/03/23 06:09:59;;;;;;;7.37;4.30;;;;;;;2.82;50.09;98917.43;1752400;82;21139;-66
2021/03/23 06:12:53;;;;;;;9.43;4.30;;;;;;;2.71;49.84;98916.66;1753283;82;21143;-67
2021/03/23 06:15:39;;;;;;;10.38;4.65;;;;;;;2.58;49.60;98917.75;1753205;81;21159;-66
2021/03/23 06:18:23;;;;;;;13.85;5.85;;;;;;;2.58;50.13;98923.83;1753372;82;21254;-65
2021/03/23 06:21:10;;;;;;;8.33;4.65;;;;;;;2.57;50.70;98926.50;1725021;82;21127;-65
2021/03/23 06:24:04;;;;;;;7.65;4.40;;;;;;;2.69;50.88;98925.88;1752669;82;21187;-66
2021/03/23 06:27:19;;;;;;;9.25;3.87;;;;;;;2.83;48.46;98924.34;1753222;82;21211;-65
2021/03/23 06:30:15;;;;;;;12.98;4.80;;;;;;;2.83;48.56;98929.09;1753217;81;21616;-66
2021/03/23 06:32:52;;;;;;;10.78;4.90;;;;;;;2.72;48.35;98933.55;1752994;82;21167;-65
2021/03/23 06:35:40;;;;;;;8.73;4.85;;;;;;;2.65;49.36;98935.24;1752942;82;21301;-65
2021/03/23 06:38:30;;;;;;;11.85;5.20;;;;;;;2.55;49.72;98933.11;1735017;82;21346;-65
2021/03/23 06:41:21;;;;;;;11.45;6.05;;;;;;;2.66;49.43;98939.55;1723333;83;21194;-65
2021/03/23 06:43:57;;;;;;;11.97;6.90;;;;;;;2.74;48.89;98947.38;1723252;82;21269;-65
2021/03/23 06:46:32;;;;;;;9.90;5.40;;;;;;;2.69;49.25;98948.08;1723455;83;21580;-65
2021/03/23 06:49:19;;;;;;;9.53;4.50;;;;;;;2.67;48.71;98945.98;1723231;83;21309;-65
2021/03/23 06:51:59;;;;;;;8.90;4.50;;;;;;;2.69;47.01;98946.77;1723313;83;21662;-66
2021/03/23 06:54:29;;;;;;;9.48;4.62;;;;;;;2.70;45.96;98963.27;1723327;83;21294;-66
2021/03/23 06:57:15;;;;;;;9.30;4.87;;;;;;;2.53;45.87;98960.20;1723174;83;21158;-65
2021/03/23 06:59:58;;;;;;;12.63;5.62;;;;;;;2.39;46.76;98955.67;1723320;83;21293;-66
2021/03/23 07:02:39;;;;;;;11.78;5.10;;;;;;;2.41;46.74;98949.45;1723147;83;21139;-65
2021/03/23 07:05:25;;;;;;;7.47;4.12;;;;;;;2.41;46.59;98954.67;1723142;83;21158;-65
2021/03/23 07:08:14;;;;;;;7.08;3.47;;;;;;;2.42;45.03;98955.06;1723417;83;21170;-65
2021/03/23 07:10:55;;;;;;;6.58;3.45;;;;;;;2.38;46.08;98957.89;1722547;83;21247;-65
2021/03/23 07:13:31;;;;;;;7.65;4.35;;;;;;;2.31;45.33;98948.22;1723516;83;21309;-65
2021/03/23 07:18:30;;;;;;;5.62;3.55;;;;;;;2.26;45.73;98941.08;1821600;79;22351;-66
2021/03/23 07:21:02;;;;;;;5.50;2.95;;;;;;;2.11;44.95;98941.36;1794735;80;21318;-66
2021/03/23 07:23:40;;;;;;;6.12;3.20;;;;;;;2.07;45.02;98946.34;1794734;80;21631;-66
2021/03/23 07:26:29;;;;;;;4.53;2.80;;;;;;;2.12;43.60;98951.75;1794943;80;21164;-66
2021/03/23 07:29:15;;;;;;;6.33;3.05;;;;;;;2.13;42.65;98946.89;1795108;80;21168;-66
2021/03/23 07:31:51;;;;;;;8.45;3.55;;;;;;;2.09;43.83;98945.35;1794020;80;21152;-66
2021/03/23 07:34:32;;;;;;;8.13;3.15;;;;;;;2.06;44.34;98944.21;1794963;80;21647;-66
2021/03/23 07:37:04;;;;;;;6.72;3.20;;;;;;;2.17;43.07;98944.15;1788462;80;21217;-66
2021/03/23 07:39:44;;;;;;;7.50;2.80;;;;;;;2.19;42.58;98939.71;1763864;81;21144;-66
2021/03/23 07:42:37;;;;;;;5.83;2.50;;;;;;;2.23;43.31;98941.25;1763679;81;21570;-66
2021/03/23 07:45:29;;;;;;;9.08;3.20;;;;;;;2.20;43.48;98939.63;1764032;81;21203;-66
2021/03/23 07:48:10;;;;;;;4.55;2.50;;;;;;;2.14;44.06;98945.14;1763668;81;21136;-66
2021/03/23 07:50:39;;;;;;;4.05;2.25;;;;;;;2.21;43.66;98945.68;1763617;81;21156;-65
2021/03/23 07:53:25;;;;;;;5.35;2.42;;;;;;;2.28;43.81;98938.78;1763796;81;21152;-65
2021/03/23 07:55:52;;;;;;;4.92;2.45;;;;;;;2.34;42.33;98933.73;1763510;81;21172;-65
2021/03/23 07:58:44;;;;;;;4.62;2.87;;;;;;;2.39;42.35;98934.35;1763465;81;21179;-65
2021/03/23 08:01:28;;;;;;;4.30;2.33;;;;;;;2.50;41.20;98935.58;1763555;81;21108;-65
2021/03/23 08:04:13;;;;;;;2.65;1.77;;;;;;;2.65;40.30;98930.88;1763558;80;21203;-65
2021/03/23 08:07:25;;;;;;;5.75;2.00;;;;;;;2.76;38.87;98928.58;1763580;81;21176;-66
2021/03/23 08:10:22;;;;;;;4.45;2.42;;;;;;;2.73;38.90;98931.33;1763443;81;21164;-66
2021/03/23 08:13:16;;;;;;;4.03;2.20;;;;;;;2.61;39.64;98931.50;1761863;81;21183;-66
2021/03/23 08:15:55;;;;;;;5.30;2.00;;;;;;;2.49;39.24;98920.36;1763846;81;21207;-66
2021/03/23 08:18:52;;;;;;;3.55;2.30;;;;;;;2.41;39.80;98919.44;1763218;81;21160;-66
2021/03/23 08:21:50;;;;;;;3.95;1.70;;;;;;;2.45;39.34;98921.44;1779933;79;23052;-67
2021/03/23 08:24:35;;;;;;;4.47;2.10;;;;;;;2.43;37.70;98924.14;1753287;82;21155;-67
2021/03/23 08:27:26;;;;;;;3.75;2.08;;;;;;;2.55;37.93;98919.22;1753401;82;21588;-67
2021/03/23 08:30:19;;;;;;;3.55;1.70;;;;;;;2.60;37.96;98918.05;1753266;81;21202;-68
2021/03/23 08:33:10;;;;;;;2.62;1.82;;;;;;;2.73;37.01;98936.55;1731905;82;21179;-67
2021/03/23 08:36:22;;;;;;;4.15;1.90;;;;;;;2.62;36.71;98915.36;1752991;81;21285;-67
2021/03/23 08:39:14;;;;;;;4.30;2.40;;;;;;;2.53;37.20;98927.58;1723368;83;21199;-66
2021/03/23 08:42:04;;;;;;;4.15;1.82;;;;;;;2.57;37.89;98915.61;1723210;83;21126;-66
2021/03/23 08:44:46;;;;;;;6.72;1.92;;;;;;;2.64;38.50;98925.27;1723307;83;21183;-66
2021/03/23 08:47:42;;;;;;;3.10;1.65;;;;;;;2.69;37.54;98935.02;1723320;83;21203;-65
2021/03/23 08:50:38;;;;;;;2.87;1.72;;;;;;;2.66;36.87;98919.53;1723097;83;21187;-66
2021/03/23 08:53:34;;;;;;;3.70;1.60;;;;;;;2.61;37.60;98925.45;1723160;83;21186;-66
2021/03/23 08:56:07;;;;;;;2.72;1.65;;;;;;;2.51;36.15;98923.75;1723353;83;21603;-66
2021/03/23 08:58:54;;;;;;;3.83;1.77;;;;;;;2.53;36.31;98926.27;1723487;83;21170;-66
2021/03/23 09:01:39;;;;;;;4.72;1.65;;;;;;;2.57;36.86;98918.22;1722695;83;21332;-66
2021/03/23 09:04:16;;;;;;;7.17;1.90;;;;;;;2.64;36.33;98929.19;1723113;83;21348;-66
2021/03/23 09:06:59;;;;;;;5.72;1.87;;;;;;;2.60;36.67;98908.09;1723069;83;21647;-66
2021/03/23 09:09:38;;;;;;;2.85;1.80;;;;;;;2.68;36.25;98919.44;1723092;83;21158;-66
2021/03/23 09:12:41;;;;;;;2.87;1.75;;;;;;;2.71;36.23;98922.74;1723131;83;21285;-65
2021/03/23 09:15:18;;;;;;;3.50;1.62;;;;;;;2.75;35.40;98920.80;1723286;83;21584;-65
2021/03/23 09:18:14;;;;;;;2.58;1.70;;;;;;;2.81;36.06;98914.43;1723515;83;21147;-66
2021/03/23 09:20:48;;;;;;;6.40;2.17;;;;;;;2.82;36.22;98905.67;1715795;83;21143;-65
2021/03/23 09:23:21;;;;;;;2.60;1.60;;;;;;;2.84;35.71;98906.42;1710725;83;21536;-65
2021/03/23 09:26:01;;;;;;;2.95;1.80;;;;;;;2.87;35.00;98897.14;1710437;84;21643;-66
2021/03/23 09:28:40;;;;;;;2.33;1.65;;;;;;;2.90;36.69;98904.36;1710580;84;21324;-66
2021/03/23 09:31:17;;;;;;;2.75;1.80;;;;;;;2.97;35.01;98898.34;1710236;83;21647;-65
2021/03/23 09:33:54;;;;;;;2.30;1.85;;;;;;;3.00;36.38;98912.53;1710073;84;21127;-65
2021/03/23 09:36:50;;;;;;;3.92;2.00;;;;;;;3.05;36.99;98926.67;1709651;84;21210;-66
2021/03/23 09:39:31;;;;;;;5.87;1.92;;;;;;;3.04;35.92;98912.75;1710034;84;21604;-65
2021/03/23 09:42:22;;;;;;;4.08;2.00;;;;;;;3.10;38.45;98905.06;1710215;83;21171;-66
2021/03/23 09:45:03;;;;;;;4.67;2.65;;;;;;;3.10;43.09;98901.14;1708092;84;21603;-66
2021/03/23 09:47:58;;;;;;;5.12;2.60;;;;;;;3.06;41.85;98901.77;1708619;84;21624;-66
2021/03/23 09:50:36;;;;;;;9.85;4.35;;;;;;;2.90;43.05;98890.00;1709994;83;21270;-67
2021/03/23 09:53:12;;;;;;;20.32;8.70;;;;;;;2.94;42.23;98893.27;1710149;84;21334;-67
2021/03/23 09:55:40;;;;;;;25.95;10.38;;;;;;;2.88;40.53;98887.08;1710055;83;21577;-67
2021/03/23 09:58:16;;;;;;;4.67;2.80;;;;;;;2.86;41.34;98907.20;1709924;83;21318;-67
2021/03/23 10:00:49;;;;;;;4.12;2.08;;;;;;;2.88;40.63;98898.84;1819375;78;23019;-66
2021/03/23 10:03:35;;;;;;;12.33;4.47;;;;;;;2.78;36.66;98893.23;1792342;80;21124;-67
2021/03/23 10:06:16;;;;;;;8.00;3.67;;;;;;;2.62;40.96;98891.87;1699245;83;21120;-66
2021/03/23 10:08:55;;;;;;;3.35;2.02;;;;;;;2.62;41.78;98880.12;1728202;83;21592;-67
2021/03/23 10:11:45;;;;;;;4.30;2.40;;;;;;;2.61;42.43;98892.81;1928448;74;23040;-66
2021/03/23 10:14:33;;;;;;;4.15;1.82;;;;;;;2.61;41.27;98894.95;1898527;75;21154;-66
2021/03/23 10:17:21;;;;;;;3.72;2.33;;;;;;;2.55;40.90;98887.91;1898540;75;21521;-66
2021/03/23 10:19:59;;;;;;;4.12;2.50;;;;;;;2.57;41.84;98885.59;1898743;75;21652;-66
2021/03/23 10:22:34;;;;;;;3.87;2.47;;;;;;;2.69;41.32;98880.67;1898669;75;21573;-66
2021/03/23 10:25:05;;;;;;;6.17;3.02;;;;;;;2.72;42.01;98885.24;1898510;75;21127;-66
2021/03/23 10:27:37;;;;;;;3.90;2.20;;;;;;;2.79;41.96;98888.41;1898452;75;21140;-66
2021/03/23 10:30:15;;;;;;;1.90;1.50;;;;;;;2.99;38.22;98889.94;1898566;75;21168;-66
2021/03/23 10:32:51;;;;;;;8.28;3.17;;;;;;;2.93;36.70;98885.91;1898750;75;21601;-66
2021/03/23 10:35:42;;;;;;;4.40;1.90;;;;;;;2.95;39.04;98877.98;1780274;79;23066;-66
2021/03/23 10:38:16;;;;;;;5.03;2.12;;;;;;;2.88;39.90;98889.69;1722396;83;21780;-66
2021/03/23 10:40:54;;;;;;;7.62;2.72;;;;;;;2.82;40.03;98893.92;1723307;83;21297;-66
2021/03/23 10:43:36;;;;;;;4.28;2.02;;;;;;;2.69;39.86;98891.94;1723087;83;21277;-66
2021/03/23 10:46:30;;;;;;;2.70;1.75;;;;;;;2.55;40.15;98890.52;1723436;83;21301;-66
2021/03/23 10:49:14;;;;;;;2.87;1.70;;;;;;;2.40;39.54;98892.95;1723113;83;21236;-66
2021/03/23 10:51:45;;;;;;;3.98;2.47;;;;;;;2.36;39.82;98904.48;1723419;83;21627;-66
2021/03/23 10:54:18;;;;;;;6.92;2.45;;;;;;;2.56;40.03;98901.34;1723360;82;21159;-66
2021/03/23 10:56:49;;;;;;;;;;;;;;;2.64;40.96;98893.95;1725747;83;21615;-66
2021/03/23 10:59:29;;;;;;;5.25;1.80;;;;;;;2.74;40.54;98908.22;1722685;83;20179;-66
2021/03/23 11:02:17;;;;;;;2.67;1.70;;;;;;;2.81;40.19;98889.15;1723180;83;21135;-66
2021/03/23 11:05:13;;;;;;;2.80;1.92;;;;;;;2.95;39.42;98896.27;1723398;83;21764;-66
2021/03/23 11:08:02;;;;;;;4.17;2.20;;;;;;;2.84;41.85;98906.42;1723035;83;21171;-66
2021/03/23 11:10:33;;;;;;;5.97;2.50;;;;;;;2.60;44.81;98909.39;1723283;83;21529;-66
2021/03/23 11:13:00;;;;;;;5.45;1.90;;;;;;;2.41;48.24;98906.39;1723298;83;21305;-66
2021/03/23 11:15:41;;;;;;;3.85;2.00;;;;;;;2.27;47.01;98914.08;1723422;83;21210;-66
2021/03/23 11:18:31;;;;;;;6.53;2.95;;;;;;;2.17;49.17;98915.45;1723287;83;21167;-66
2021/03/23 11:21:03;;;;;;;2.50;1.90;;;;;;;2.21;51.27;98918.29;1723285;83;21131;-66
2021/03/23 11:23:47;;;;;;;6.35;3.50;;;;;;;2.23;51.47;98919.07;1723434;83;21317;-66
2021/03/23 11:26:23;;;;;;;8.20;3.02;;;;;;;2.34;52.15;98918.08;1723662;83;21167;-66
2021/03/23 11:28:55;;;;;;;5.10;2.20;;;;;;;2.58;49.95;98912.09;1723499;83;21544;-66
2021/03/23 11:31:26;;;;;;;6.05;2.52;;;;;;;2.79;48.77;98889.23;1723397;83;21583;-66
2021/03/23 11:33:55;;;;;;;9.88;4.30;;;;;;;3.06;46.98;98888.70;1720321;83;21163;-66
2021/03/23 11:36:23;;;;;;;6.55;3.10;;;;;;;3.14;47.97;98913.59;1710561;84;21290;-66
2021/03/23 11:38:51;;;;;;;6.58;2.65;;;;;;;3.18;43.68;98915.94;1710646;84;21124;-67
2021/03/23 11:41:26;;;;;;;5.58;1.90;;;;;;;3.16;42.51;98901.27;1710457;83;21600;-67
2021/03/23 11:44:01;;;;;;;;;;;;;;;3.05;41.61;98906.61;1693530;84;21148;-66
2021/03/23 11:46:46;;;;;;;3.95;2.20;;;;;;;2.98;42.64;98910.48;1709849;84;20263;-66
2021/03/23 11:49:36;;;;;;;3.25;2.00;;;;;;;2.78;43.86;98917.56;1710047;84;21167;-66
2021/03/23 11:52:08;;;;;;;3.62;2.37;;;;;;;2.67;43.74;98901.61;1709858;84;21140;-66
2021/03/23 11:54:36;;;;;;;3.98;2.20;;;;;;;2.56;45.02;98908.70;1710077;84;21673;-66
2021/03/23 11:57:05;;;;;;;4.08;2.12;;;;;;;2.44;44.78;98906.26;1709974;84;21317;-66
2021/03/23 11:59:34;;;;;;;3.98;2.40;;;;;;;2.41;45.69;98919.44;1709747;84;21146;-66
2021/03/23 12:02:04;;;;;;;2.92;1.87;;;;;;;2.38;45.83;98930.05;1709783;84;21195;-66
2021/03/23 12:04:32;;;;;;;2.67;1.70;;;;;;;2.40;43.63;98907.78;1709691;84;21185;-66
2021/03/23 12:07:24;;;;;;;2.98;1.80;;;;;;;2.39;44.03;98917.39;1709761;84;21325;-66
2021/03/23 12:09:59;;;;;;;5.22;2.12;;;;;;;2.41;43.54;98905.09;1710042;84;21108;-66
2021/03/23 12:12:48;;;;;;;2.52;1.82;;;;;;;2.45;44.30;98920.14;1709905;83;21179;-67
2021/03/23 12:15:34;;;;;;;5.65;2.25;;;;;;;2.50;44.85;98902.95;1709714;84;21168;-67
2021/03/23 12:18:08;;;;;;;4.65;2.20;;;;;;;2.60;45.40;98901.56;1709995;83;21155;-66
2021/03/23 12:20:36;;;;;;;5.05;2.65;;;;;;;2.57;45.23;98906.92;1709748;84;21301;-67